sensor_id;sensor_type;location;lat;lon;timestamp;temperature;humidity
3678;DHT22;1855;50.934;6.958;2023-04-06T00:01:38;5.30;79.30
3678;DHT22;1855;50.934;6.958;2023-04-06T00:04:06;5.30;79.20
3678;DHT22;1855;50.934;6.958;2023-04-06T00:06:33;5.30;79.10
3678;DHT22;1855;50.934;6.958;2023-04-06T00:09:00;5.30;78.50
3678;DHT22;1855;50.934;6.958;2023-04-06T00:11:27;5.30;78.80
3678;DHT22;1855;50.934;6.958;2023-04-06T00:13:55;5.20;76.20
3678;DHT22;1855;50.934;6.958;2023-04-06T00:16:22;5.20;76.30
3678;DHT22;1855;50.934;6.958;2023-04-06T00:18:48;5.20;78.30
3678;DHT22;1855;50.934;6.958;2023-04-06T00:21:15;5.20;79.30
3678;DHT22;1855;50.934;6.958;2023-04-06T00:23:42;5.10;78.90
3678;DHT22;1855;50.934;6.958;2023-04-06T00:26:09;5.10;79.60
3678;DHT22;1855;50.934;6.958;2023-04-06T00:28:36;5.10;80.50
3678;DHT22;1855;50.934;6.958;2023-04-06T00:31:05;5.00;81.50
3678;DHT22;1855;50.934;6.958;2023-04-06T00:33:32;5.00;80.90
3678;DHT22;1855;50.934;6.958;2023-04-06T00:35:59;5.00;82.80
3678;DHT22;1855;50.934;6.958;2023-04-06T00:38:29;4.90;82.10
3678;DHT22;1855;50.934;6.958;2023-04-06T00:40:56;4.90;81.70
3678;DHT22;1855;50.934;6.958;2023-04-06T00:43:23;4.90;82.10
3678;DHT22;1855;50.934;6.958;2023-04-06T00:45:50;4.80;81.40
3678;DHT22;1855;50.934;6.958;2023-04-06T00:48:18;4.80;81.50
3678;DHT22;1855;50.934;6.958;2023-04-06T00:50:45;4.80;80.80
3678;DHT22;1855;50.934;6.958;2023-04-06T00:53:11;4.70;81.30
3678;DHT22;1855;50.934;6.958;2023-04-06T00:55:39;4.70;82.00
3678;DHT22;1855;50.934;6.958;2023-04-06T00:58:05;4.70;82.10
3678;DHT22;1855;50.934;6.958;2023-04-06T01:00:32;4.70;80.50
3678;DHT22;1855;50.934;6.958;2023-04-06T01:03:00;4.70;79.80
3678;DHT22;1855;50.934;6.958;2023-04-06T01:05:28;4.60;78.90
3678;DHT22;1855;50.934;6.958;2023-04-06T01:07:55;4.60;77.70
3678;DHT22;1855;50.934;6.958;2023-04-06T01:10:25;4.60;78.00
3678;DHT22;1855;50.934;6.958;2023-04-06T01:12:52;4.60;77.10
3678;DHT22;1855;50.934;6.958;2023-04-06T01:15:19;4.60;77.50
3678;DHT22;1855;50.934;6.958;2023-04-06T01:17:47;4.60;76.70
3678;DHT22;1855;50.934;6.958;2023-04-06T01:20:14;4.60;76.10
3678;DHT22;1855;50.934;6.958;2023-04-06T01:22:42;4.50;75.30
3678;DHT22;1855;50.934;6.958;2023-04-06T01:25:10;4.50;74.70
3678;DHT22;1855;50.934;6.958;2023-04-06T01:27:37;4.50;74.60
3678;DHT22;1855;50.934;6.958;2023-04-06T01:30:04;4.50;73.80
3678;DHT22;1855;50.934;6.958;2023-04-06T01:32:32;4.40;74.10
3678;DHT22;1855;50.934;6.958;2023-04-06T01:34:58;4.40;74.40
3678;DHT22;1855;50.934;6.958;2023-04-06T01:37:25;4.40;74.00
3678;DHT22;1855;50.934;6.958;2023-04-06T01:39:54;4.40;74.40
3678;DHT22;1855;50.934;6.958;2023-04-06T01:42:21;4.40;75.40
3678;DHT22;1855;50.934;6.958;2023-04-06T01:44:47;4.40;77.10
3678;DHT22;1855;50.934;6.958;2023-04-06T01:47:14;4.40;78.00
3678;DHT22;1855;50.934;6.958;2023-04-06T01:49:41;4.30;78.80
3678;DHT22;1855;50.934;6.958;2023-04-06T01:52:08;4.30;78.90
3678;DHT22;1855;50.934;6.958;2023-04-06T01:54:35;4.20;78.90
3678;DHT22;1855;50.934;6.958;2023-04-06T01:57:03;4.20;77.50
3678;DHT22;1855;50.934;6.958;2023-04-06T01:59:30;4.20;75.50
3678;DHT22;1855;50.934;6.958;2023-04-06T02:01:57;4.10;75.30
3678;DHT22;1855;50.934;6.958;2023-04-06T02:04:24;4.10;75.10
3678;DHT22;1855;50.934;6.958;2023-04-06T02:06:51;4.10;76.20
3678;DHT22;1855;50.934;6.958;2023-04-06T02:09:18;4.10;75.80
3678;DHT22;1855;50.934;6.958;2023-04-06T02:11:45;4.10;75.50
3678;DHT22;1855;50.934;6.958;2023-04-06T02:14:13;4.00;76.60
3678;DHT22;1855;50.934;6.958;2023-04-06T02:16:40;4.00;77.60
3678;DHT22;1855;50.934;6.958;2023-04-06T02:19:07;4.00;77.70
3678;DHT22;1855;50.934;6.958;2023-04-06T02:21:34;4.00;77.90
3678;DHT22;1855;50.934;6.958;2023-04-06T02:24:00;4.00;78.80
3678;DHT22;1855;50.934;6.958;2023-04-06T02:26:27;4.00;78.70
3678;DHT22;1855;50.934;6.958;2023-04-06T02:28:54;4.00;79.70
3678;DHT22;1855;50.934;6.958;2023-04-06T02:31:22;4.00;79.70
3678;DHT22;1855;50.934;6.958;2023-04-06T02:33:49;3.90;80.30
3678;DHT22;1855;50.934;6.958;2023-04-06T02:36:16;4.00;79.60
3678;DHT22;1855;50.934;6.958;2023-04-06T02:38:43;3.90;79.40
3678;DHT22;1855;50.934;6.958;2023-04-06T02:41:10;3.90;79.50
3678;DHT22;1855;50.934;6.958;2023-04-06T02:43:37;3.90;79.90
3678;DHT22;1855;50.934;6.958;2023-04-06T02:46:03;3.90;79.80
3678;DHT22;1855;50.934;6.958;2023-04-06T02:48:32;3.80;79.70
3678;DHT22;1855;50.934;6.958;2023-04-06T02:51:01;3.80;80.30
3678;DHT22;1855;50.934;6.958;2023-04-06T02:53:28;3.80;78.90
3678;DHT22;1855;50.934;6.958;2023-04-06T02:55:55;3.80;79.20
3678;DHT22;1855;50.934;6.958;2023-04-06T02:58:22;3.80;78.70
3678;DHT22;1855;50.934;6.958;2023-04-06T03:00:49;3.70;78.60
3678;DHT22;1855;50.934;6.958;2023-04-06T03:03:16;3.70;79.50
3678;DHT22;1855;50.934;6.958;2023-04-06T03:05:44;3.70;78.90
3678;DHT22;1855;50.934;6.958;2023-04-06T03:08:11;3.70;78.90
3678;DHT22;1855;50.934;6.958;2023-04-06T03:10:37;3.70;78.40
3678;DHT22;1855;50.934;6.958;2023-04-06T03:13:04;3.60;79.00
3678;DHT22;1855;50.934;6.958;2023-04-06T03:15:31;3.60;79.20
3678;DHT22;1855;50.934;6.958;2023-04-06T03:17:58;3.60;79.70
3678;DHT22;1855;50.934;6.958;2023-04-06T03:20:25;3.60;79.70
3678;DHT22;1855;50.934;6.958;2023-04-06T03:22:53;3.60;80.20
3678;DHT22;1855;50.934;6.958;2023-04-06T03:25:20;3.50;80.50
3678;DHT22;1855;50.934;6.958;2023-04-06T03:27:47;3.50;81.50
3678;DHT22;1855;50.934;6.958;2023-04-06T03:30:14;3.50;81.60
3678;DHT22;1855;50.934;6.958;2023-04-06T03:32:41;3.50;82.10
3678;DHT22;1855;50.934;6.958;2023-04-06T03:35:09;3.50;82.50
3678;DHT22;1855;50.934;6.958;2023-04-06T03:37:36;3.50;82.50
3678;DHT22;1855;50.934;6.958;2023-04-06T03:40:05;3.50;82.60
3678;DHT22;1855;50.934;6.958;2023-04-06T03:42:32;3.40;82.70
3678;DHT22;1855;50.934;6.958;2023-04-06T03:44:59;3.50;83.50
3678;DHT22;1855;50.934;6.958;2023-04-06T03:47:26;3.40;82.90
3678;DHT22;1855;50.934;6.958;2023-04-06T03:49:52;3.40;82.90
3678;DHT22;1855;50.934;6.958;2023-04-06T03:52:21;3.40;82.40
3678;DHT22;1855;50.934;6.958;2023-04-06T03:54:48;3.30;82.70
3678;DHT22;1855;50.934;6.958;2023-04-06T03:57:16;3.40;81.60
3678;DHT22;1855;50.934;6.958;2023-04-06T03:59:43;3.40;82.10
3678;DHT22;1855;50.934;6.958;2023-04-06T04:02:10;3.30;81.80
3678;DHT22;1855;50.934;6.958;2023-04-06T04:04:37;3.40;82.30
3678;DHT22;1855;50.934;6.958;2023-04-06T04:07:04;3.30;82.00
3678;DHT22;1855;50.934;6.958;2023-04-06T04:09:31;3.30;81.80
3678;DHT22;1855;50.934;6.958;2023-04-06T04:11:58;3.30;81.60
3678;DHT22;1855;50.934;6.958;2023-04-06T04:14:26;3.30;81.30
3678;DHT22;1855;50.934;6.958;2023-04-06T04:16:53;3.20;80.80
3678;DHT22;1855;50.934;6.958;2023-04-06T04:19:20;3.20;80.80
3678;DHT22;1855;50.934;6.958;2023-04-06T04:21:47;3.20;80.70
3678;DHT22;1855;50.934;6.958;2023-04-06T04:24:14;3.10;80.50
3678;DHT22;1855;50.934;6.958;2023-04-06T04:26:41;3.10;80.40
3678;DHT22;1855;50.934;6.958;2023-04-06T04:29:07;3.10;79.50
3678;DHT22;1855;50.934;6.958;2023-04-06T04:31:36;3.00;79.60
3678;DHT22;1855;50.934;6.958;2023-04-06T04:34:03;3.10;79.60
3678;DHT22;1855;50.934;6.958;2023-04-06T04:36:32;3.10;79.10
3678;DHT22;1855;50.934;6.958;2023-04-06T04:38:59;3.00;78.90
3678;DHT22;1855;50.934;6.958;2023-04-06T04:41:26;3.00;79.70
3678;DHT22;1855;50.934;6.958;2023-04-06T04:43:53;3.00;80.70
3678;DHT22;1855;50.934;6.958;2023-04-06T04:46:20;3.00;81.20
3678;DHT22;1855;50.934;6.958;2023-04-06T04:48:48;2.90;81.20
3678;DHT22;1855;50.934;6.958;2023-04-06T04:51:15;2.90;81.50
3678;DHT22;1855;50.934;6.958;2023-04-06T04:53:42;2.90;82.40
3678;DHT22;1855;50.934;6.958;2023-04-06T04:56:09;2.90;83.00
3678;DHT22;1855;50.934;6.958;2023-04-06T04:58:36;2.90;82.70
3678;DHT22;1855;50.934;6.958;2023-04-06T05:01:02;2.80;83.20
3678;DHT22;1855;50.934;6.958;2023-04-06T05:03:32;2.80;83.40
3678;DHT22;1855;50.934;6.958;2023-04-06T05:06:01;2.80;82.60
3678;DHT22;1855;50.934;6.958;2023-04-06T05:08:27;2.80;83.50
3678;DHT22;1855;50.934;6.958;2023-04-06T05:10:54;2.80;82.30
3678;DHT22;1855;50.934;6.958;2023-04-06T05:13:21;2.80;82.70
3678;DHT22;1855;50.934;6.958;2023-04-06T05:15:48;2.80;82.50
3678;DHT22;1855;50.934;6.958;2023-04-06T05:18:15;2.90;82.20
3678;DHT22;1855;50.934;6.958;2023-04-06T05:20:42;2.80;82.40
3678;DHT22;1855;50.934;6.958;2023-04-06T05:23:10;2.90;82.30
3678;DHT22;1855;50.934;6.958;2023-04-06T05:25:38;2.90;81.90
3678;DHT22;1855;50.934;6.958;2023-04-06T05:28:05;2.90;81.60
3678;DHT22;1855;50.934;6.958;2023-04-06T05:30:32;2.90;80.60
3678;DHT22;1855;50.934;6.958;2023-04-06T05:32:59;2.90;80.70
3678;DHT22;1855;50.934;6.958;2023-04-06T05:35:25;2.90;80.70
3678;DHT22;1855;50.934;6.958;2023-04-06T05:37:52;2.90;79.60
3678;DHT22;1855;50.934;6.958;2023-04-06T05:40:20;2.90;79.40
3678;DHT22;1855;50.934;6.958;2023-04-06T05:42:47;3.00;79.40
3678;DHT22;1855;50.934;6.958;2023-04-06T05:45:15;3.00;79.20
3678;DHT22;1855;50.934;6.958;2023-04-06T05:47:44;3.10;79.20
3678;DHT22;1855;50.934;6.958;2023-04-06T05:50:11;3.10;78.00
3678;DHT22;1855;50.934;6.958;2023-04-06T05:52:38;3.20;78.00
3678;DHT22;1855;50.934;6.958;2023-04-06T05:55:09;3.20;77.80
3678;DHT22;1855;50.934;6.958;2023-04-06T06:00:16;3.20;77.70
3678;DHT22;1855;50.934;6.958;2023-04-06T06:02:43;3.30;76.80
3678;DHT22;1855;50.934;6.958;2023-04-06T06:05:10;3.40;77.10
3678;DHT22;1855;50.934;6.958;2023-04-06T06:07:37;3.40;76.80
3678;DHT22;1855;50.934;6.958;2023-04-06T06:10:04;3.40;76.10
3678;DHT22;1855;50.934;6.958;2023-04-06T06:12:33;3.50;76.20
3678;DHT22;1855;50.934;6.958;2023-04-06T06:15:00;3.50;76.60
3678;DHT22;1855;50.934;6.958;2023-04-06T06:17:28;3.60;76.20
3678;DHT22;1855;50.934;6.958;2023-04-06T06:19:55;3.60;76.00
3678;DHT22;1855;50.934;6.958;2023-04-06T06:22:22;3.60;76.10
3678;DHT22;1855;50.934;6.958;2023-04-06T06:24:49;3.70;76.00
3678;DHT22;1855;50.934;6.958;2023-04-06T06:27:16;3.70;76.20
3678;DHT22;1855;50.934;6.958;2023-04-06T06:29:43;3.80;76.10
3678;DHT22;1855;50.934;6.958;2023-04-06T06:32:11;3.90;75.80
3678;DHT22;1855;50.934;6.958;2023-04-06T06:34:39;4.00;75.40
3678;DHT22;1855;50.934;6.958;2023-04-06T06:37:06;4.10;74.60
3678;DHT22;1855;50.934;6.958;2023-04-06T06:39:33;4.10;74.30
3678;DHT22;1855;50.934;6.958;2023-04-06T06:42:00;4.20;74.80
3678;DHT22;1855;50.934;6.958;2023-04-06T06:44:28;4.20;75.00
3678;DHT22;1855;50.934;6.958;2023-04-06T06:46:54;4.30;73.70
3678;DHT22;1855;50.934;6.958;2023-04-06T06:49:21;4.40;73.70
3678;DHT22;1855;50.934;6.958;2023-04-06T06:51:50;4.40;73.20
3678;DHT22;1855;50.934;6.958;2023-04-06T06:54:16;4.50;73.00
3678;DHT22;1855;50.934;6.958;2023-04-06T06:56:43;4.50;72.60
3678;DHT22;1855;50.934;6.958;2023-04-06T06:59:10;4.70;72.70
3678;DHT22;1855;50.934;6.958;2023-04-06T07:01:37;4.80;72.30
3678;DHT22;1855;50.934;6.958;2023-04-06T07:04:04;4.80;72.30
3678;DHT22;1855;50.934;6.958;2023-04-06T07:06:31;4.90;71.80
3678;DHT22;1855;50.934;6.958;2023-04-06T07:08:59;5.10;71.50
3678;DHT22;1855;50.934;6.958;2023-04-06T07:11:26;5.30;70.60
3678;DHT22;1855;50.934;6.958;2023-04-06T07:13:53;5.40;68.70
3678;DHT22;1855;50.934;6.958;2023-04-06T07:16:20;5.50;69.40
3678;DHT22;1855;50.934;6.958;2023-04-06T07:18:47;5.70;68.90
3678;DHT22;1855;50.934;6.958;2023-04-06T07:21:13;5.90;68.20
3678;DHT22;1855;50.934;6.958;2023-04-06T07:23:41;6.10;67.40
3678;DHT22;1855;50.934;6.958;2023-04-06T07:26:09;6.30;66.20
3678;DHT22;1855;50.934;6.958;2023-04-06T07:28:36;6.50;64.20
3678;DHT22;1855;50.934;6.958;2023-04-06T07:31:03;6.70;63.70
3678;DHT22;1855;50.934;6.958;2023-04-06T07:33:32;6.80;63.30
3678;DHT22;1855;50.934;6.958;2023-04-06T07:36:04;7.10;62.70
3678;DHT22;1855;50.934;6.958;2023-04-06T07:38:31;7.40;61.60
3678;DHT22;1855;50.934;6.958;2023-04-06T07:40:58;7.50;59.50
3678;DHT22;1855;50.934;6.958;2023-04-06T07:43:27;7.70;59.50
3678;DHT22;1855;50.934;6.958;2023-04-06T07:45:53;7.70;59.40
3678;DHT22;1855;50.934;6.958;2023-04-06T07:48:22;7.90;59.20
3678;DHT22;1855;50.934;6.958;2023-04-06T07:50:49;8.00;60.40
3678;DHT22;1855;50.934;6.958;2023-04-06T07:53:16;8.00;59.80
3678;DHT22;1855;50.934;6.958;2023-04-06T07:55:43;8.10;58.70
3678;DHT22;1855;50.934;6.958;2023-04-06T07:58:10;8.30;58.50
3678;DHT22;1855;50.934;6.958;2023-04-06T08:00:38;8.40;58.20
3678;DHT22;1855;50.934;6.958;2023-04-06T08:03:05;8.30;58.20
3678;DHT22;1855;50.934;6.958;2023-04-06T08:05:32;8.30;58.00
3678;DHT22;1855;50.934;6.958;2023-04-06T08:07:59;8.30;58.10
3678;DHT22;1855;50.934;6.958;2023-04-06T08:10:26;8.40;58.00
3678;DHT22;1855;50.934;6.958;2023-04-06T08:12:52;8.50;57.80
3678;DHT22;1855;50.934;6.958;2023-04-06T08:15:20;8.60;57.10
3678;DHT22;1855;50.934;6.958;2023-04-06T08:17:48;8.70;55.80
3678;DHT22;1855;50.934;6.958;2023-04-06T08:20:15;8.90;55.20
3678;DHT22;1855;50.934;6.958;2023-04-06T08:22:42;9.30;54.70
3678;DHT22;1855;50.934;6.958;2023-04-06T08:25:09;9.60;53.60
3678;DHT22;1855;50.934;6.958;2023-04-06T08:27:36;9.80;52.80
3678;DHT22;1855;50.934;6.958;2023-04-06T08:30:03;9.90;51.80
3678;DHT22;1855;50.934;6.958;2023-04-06T08:32:30;9.90;51.80
3678;DHT22;1855;50.934;6.958;2023-04-06T08:34:58;10.00;52.20
3678;DHT22;1855;50.934;6.958;2023-04-06T08:37:25;10.20;51.40
3678;DHT22;1855;50.934;6.958;2023-04-06T08:39:52;10.50;51.20
3678;DHT22;1855;50.934;6.958;2023-04-06T08:42:20;10.50;49.50
3678;DHT22;1855;50.934;6.958;2023-04-06T08:44:48;10.50;49.00
3678;DHT22;1855;50.934;6.958;2023-04-06T08:47:16;10.50;48.60
3678;DHT22;1855;50.934;6.958;2023-04-06T08:49:44;10.60;49.10
3678;DHT22;1855;50.934;6.958;2023-04-06T08:52:14;10.60;48.40
3678;DHT22;1855;50.934;6.958;2023-04-06T08:54:44;10.80;48.90
3678;DHT22;1855;50.934;6.958;2023-04-06T08:57:11;11.10;47.80
3678;DHT22;1855;50.934;6.958;2023-04-06T08:59:39;11.40;47.10
3678;DHT22;1855;50.934;6.958;2023-04-06T09:02:09;11.50;46.40
3678;DHT22;1855;50.934;6.958;2023-04-06T09:04:40;11.60;46.30
3678;DHT22;1855;50.934;6.958;2023-04-06T09:07:07;11.90;46.00
3678;DHT22;1855;50.934;6.958;2023-04-06T09:09:35;12.20;44.90
3678;DHT22;1855;50.934;6.958;2023-04-06T09:12:02;12.40;44.60
3678;DHT22;1855;50.934;6.958;2023-04-06T09:14:35;12.60;44.00
3678;DHT22;1855;50.934;6.958;2023-04-06T09:17:03;12.80;44.00
3678;DHT22;1855;50.934;6.958;2023-04-06T09:19:30;12.70;43.60
3678;DHT22;1855;50.934;6.958;2023-04-06T09:22:03;12.70;43.80
3678;DHT22;1855;50.934;6.958;2023-04-06T09:24:44;12.70;44.50
3678;DHT22;1855;50.934;6.958;2023-04-06T09:27:12;13.00;44.60
3678;DHT22;1855;50.934;6.958;2023-04-06T09:29:40;13.20;43.40
3678;DHT22;1855;50.934;6.958;2023-04-06T09:32:09;13.30;43.00
3678;DHT22;1855;50.934;6.958;2023-04-06T09:34:37;13.30;42.90
3678;DHT22;1855;50.934;6.958;2023-04-06T09:37:14;13.30;43.00
3678;DHT22;1855;50.934;6.958;2023-04-06T09:39:42;13.40;43.10
3678;DHT22;1855;50.934;6.958;2023-04-06T09:42:11;13.30;42.80
3678;DHT22;1855;50.934;6.958;2023-04-06T09:44:38;13.10;43.00
3678;DHT22;1855;50.934;6.958;2023-04-06T09:47:06;13.00;43.70
3678;DHT22;1855;50.934;6.958;2023-04-06T09:49:34;13.00;43.80
3678;DHT22;1855;50.934;6.958;2023-04-06T09:52:03;13.00;43.90
3678;DHT22;1855;50.934;6.958;2023-04-06T09:54:35;13.20;43.80
3678;DHT22;1855;50.934;6.958;2023-04-06T09:57:07;13.20;43.80
3678;DHT22;1855;50.934;6.958;2023-04-06T09:59:41;13.40;43.60
3678;DHT22;1855;50.934;6.958;2023-04-06T10:02:16;13.60;43.10
3678;DHT22;1855;50.934;6.958;2023-04-06T10:04:52;13.90;42.30
3678;DHT22;1855;50.934;6.958;2023-04-06T10:07:20;14.00;42.30
3678;DHT22;1855;50.934;6.958;2023-04-06T10:09:48;14.10;41.80
3678;DHT22;1855;50.934;6.958;2023-04-06T10:12:17;14.30;42.50
3678;DHT22;1855;50.934;6.958;2023-04-06T10:14:44;14.40;41.60
3678;DHT22;1855;50.934;6.958;2023-04-06T10:17:11;14.70;41.50
3678;DHT22;1855;50.934;6.958;2023-04-06T10:19:43;15.00;40.80
3678;DHT22;1855;50.934;6.958;2023-04-06T10:22:15;15.10;40.40
3678;DHT22;1855;50.934;6.958;2023-04-06T10:24:45;15.40;40.40
3678;DHT22;1855;50.934;6.958;2023-04-06T10:27:12;15.80;39.50
3678;DHT22;1855;50.934;6.958;2023-04-06T10:29:47;16.10;38.80
3678;DHT22;1855;50.934;6.958;2023-04-06T10:32:15;16.30;38.60
3678;DHT22;1855;50.934;6.958;2023-04-06T10:34:42;16.30;38.40
3678;DHT22;1855;50.934;6.958;2023-04-06T10:37:16;16.30;36.90
3678;DHT22;1855;50.934;6.958;2023-04-06T10:39:47;16.10;37.40
3678;DHT22;1855;50.934;6.958;2023-04-06T10:42:23;15.90;37.80
3678;DHT22;1855;50.934;6.958;2023-04-06T10:44:52;15.50;37.50
3678;DHT22;1855;50.934;6.958;2023-04-06T10:47:19;15.40;38.10
3678;DHT22;1855;50.934;6.958;2023-04-06T10:49:45;15.30;38.40
3678;DHT22;1855;50.934;6.958;2023-04-06T10:52:12;15.30;38.00
3678;DHT22;1855;50.934;6.958;2023-04-06T10:54:42;15.20;38.10
3678;DHT22;1855;50.934;6.958;2023-04-06T10:57:10;15.30;38.50
3678;DHT22;1855;50.934;6.958;2023-04-06T10:59:37;15.40;38.50
3678;DHT22;1855;50.934;6.958;2023-04-06T11:02:19;15.50;38.50
3678;DHT22;1855;50.934;6.958;2023-04-06T11:04:54;15.50;37.50
3678;DHT22;1855;50.934;6.958;2023-04-06T11:07:23;15.40;37.20
3678;DHT22;1855;50.934;6.958;2023-04-06T11:09:50;15.30;37.80
3678;DHT22;1855;50.934;6.958;2023-04-06T11:12:21;15.20;37.50
3678;DHT22;1855;50.934;6.958;2023-04-06T11:14:53;15.00;38.00
3678;DHT22;1855;50.934;6.958;2023-04-06T11:17:27;15.00;37.60
3678;DHT22;1855;50.934;6.958;2023-04-06T11:19:54;15.00;37.70
3678;DHT22;1855;50.934;6.958;2023-04-06T11:22:21;15.00;37.10
3678;DHT22;1855;50.934;6.958;2023-04-06T11:24:48;14.90;37.10
3678;DHT22;1855;50.934;6.958;2023-04-06T11:27:15;14.80;36.70
3678;DHT22;1855;50.934;6.958;2023-04-06T11:29:43;14.70;37.40
3678;DHT22;1855;50.934;6.958;2023-04-06T11:32:11;14.70;36.60
3678;DHT22;1855;50.934;6.958;2023-04-06T11:34:40;15.00;40.00
3678;DHT22;1855;50.934;6.958;2023-04-06T11:37:08;15.10;38.10
3678;DHT22;1855;50.934;6.958;2023-04-06T11:39:38;15.20;36.50
3678;DHT22;1855;50.934;6.958;2023-04-06T11:42:06;15.10;35.70
3678;DHT22;1855;50.934;6.958;2023-04-06T11:44:34;15.10;36.50
3678;DHT22;1855;50.934;6.958;2023-04-06T11:47:01;15.00;35.60
3678;DHT22;1855;50.934;6.958;2023-04-06T11:49:29;15.00;35.80
3678;DHT22;1855;50.934;6.958;2023-04-06T11:51:58;15.00;36.70
3678;DHT22;1855;50.934;6.958;2023-04-06T11:54:32;14.90;36.10
3678;DHT22;1855;50.934;6.958;2023-04-06T11:56:59;14.80;36.40
3678;DHT22;1855;50.934;6.958;2023-04-06T11:59:27;14.70;36.80
3678;DHT22;1855;50.934;6.958;2023-04-06T12:01:54;14.70;37.50
3678;DHT22;1855;50.934;6.958;2023-04-06T12:04:21;14.70;37.20
3678;DHT22;1855;50.934;6.958;2023-04-06T12:06:49;14.70;37.60
3678;DHT22;1855;50.934;6.958;2023-04-06T12:09:19;14.80;37.50
3678;DHT22;1855;50.934;6.958;2023-04-06T12:11:46;14.90;37.60
3678;DHT22;1855;50.934;6.958;2023-04-06T12:14:13;15.10;35.80
3678;DHT22;1855;50.934;6.958;2023-04-06T12:16:40;15.10;36.00
3678;DHT22;1855;50.934;6.958;2023-04-06T12:19:07;15.20;35.80
3678;DHT22;1855;50.934;6.958;2023-04-06T12:21:34;15.20;35.80
3678;DHT22;1855;50.934;6.958;2023-04-06T12:24:02;15.20;36.20
3678;DHT22;1855;50.934;6.958;2023-04-06T12:26:31;15.40;35.70
3678;DHT22;1855;50.934;6.958;2023-04-06T12:28:58;15.40;35.50
3678;DHT22;1855;50.934;6.958;2023-04-06T12:31:30;15.30;35.30
3678;DHT22;1855;50.934;6.958;2023-04-06T12:33:57;15.20;35.90
3678;DHT22;1855;50.934;6.958;2023-04-06T12:36:24;15.00;35.90
3678;DHT22;1855;50.934;6.958;2023-04-06T12:38:51;14.90;36.40
3678;DHT22;1855;50.934;6.958;2023-04-06T12:41:18;14.90;36.70
3678;DHT22;1855;50.934;6.958;2023-04-06T12:43:46;15.00;37.00
3678;DHT22;1855;50.934;6.958;2023-04-06T12:46:15;14.90;37.10
3678;DHT22;1855;50.934;6.958;2023-04-06T12:48:42;14.90;37.10
3678;DHT22;1855;50.934;6.958;2023-04-06T12:51:09;14.60;37.90
3678;DHT22;1855;50.934;6.958;2023-04-06T12:53:36;14.60;38.90
3678;DHT22;1855;50.934;6.958;2023-04-06T12:56:09;14.70;38.70
3678;DHT22;1855;50.934;6.958;2023-04-06T12:58:36;14.70;38.30
3678;DHT22;1855;50.934;6.958;2023-04-06T13:01:06;14.80;38.00
3678;DHT22;1855;50.934;6.958;2023-04-06T13:03:34;14.50;38.40
3678;DHT22;1855;50.934;6.958;2023-04-06T13:06:01;14.40;39.00
3678;DHT22;1855;50.934;6.958;2023-04-06T13:08:28;14.20;39.70
3678;DHT22;1855;50.934;6.958;2023-04-06T13:10:55;14.20;40.40
3678;DHT22;1855;50.934;6.958;2023-04-06T13:13:23;14.20;40.80
3678;DHT22;1855;50.934;6.958;2023-04-06T13:15:51;14.30;41.00
3678;DHT22;1855;50.934;6.958;2023-04-06T13:18:19;14.10;41.30
3678;DHT22;1855;50.934;6.958;2023-04-06T13:20:46;13.90;42.10
3678;DHT22;1855;50.934;6.958;2023-04-06T13:23:13;13.80;42.90
3678;DHT22;1855;50.934;6.958;2023-04-06T13:25:40;13.90;43.70
3678;DHT22;1855;50.934;6.958;2023-04-06T13:28:08;13.90;44.10
3678;DHT22;1855;50.934;6.958;2023-04-06T13:30:35;13.80;44.50
3678;DHT22;1855;50.934;6.958;2023-04-06T13:33:02;13.70;44.40
3678;DHT22;1855;50.934;6.958;2023-04-06T13:35:31;13.60;45.20
3678;DHT22;1855;50.934;6.958;2023-04-06T13:37:58;13.60;44.30
3678;DHT22;1855;50.934;6.958;2023-04-06T13:40:25;13.50;44.00
3678;DHT22;1855;50.934;6.958;2023-04-06T13:42:52;13.40;44.10
3678;DHT22;1855;50.934;6.958;2023-04-06T13:45:18;13.30;44.60
3678;DHT22;1855;50.934;6.958;2023-04-06T13:47:45;13.10;45.30
3678;DHT22;1855;50.934;6.958;2023-04-06T13:50:12;12.80;47.40
3678;DHT22;1855;50.934;6.958;2023-04-06T13:52:40;12.50;47.80
3678;DHT22;1855;50.934;6.958;2023-04-06T13:55:08;12.30;48.50
3678;DHT22;1855;50.934;6.958;2023-04-06T13:57:34;12.20;49.20
3678;DHT22;1855;50.934;6.958;2023-04-06T14:00:02;12.00;50.20
3678;DHT22;1855;50.934;6.958;2023-04-06T14:02:29;11.90;50.90
3678;DHT22;1855;50.934;6.958;2023-04-06T14:04:56;11.80;51.80
3678;DHT22;1855;50.934;6.958;2023-04-06T14:07:22;11.70;52.60
3678;DHT22;1855;50.934;6.958;2023-04-06T14:09:51;11.60;53.60
3678;DHT22;1855;50.934;6.958;2023-04-06T14:12:18;11.50;54.70
3678;DHT22;1855;50.934;6.958;2023-04-06T14:14:45;11.60;54.70
3678;DHT22;1855;50.934;6.958;2023-04-06T14:17:11;11.60;55.40
3678;DHT22;1855;50.934;6.958;2023-04-06T14:19:38;11.70;55.70
3678;DHT22;1855;50.934;6.958;2023-04-06T14:22:05;11.70;56.90
3678;DHT22;1855;50.934;6.958;2023-04-06T14:24:32;11.70;57.10
3678;DHT22;1855;50.934;6.958;2023-04-06T14:27:00;11.70;57.70
3678;DHT22;1855;50.934;6.958;2023-04-06T14:29:28;11.70;58.50
3678;DHT22;1855;50.934;6.958;2023-04-06T14:31:55;11.60;58.40
3678;DHT22;1855;50.934;6.958;2023-04-06T14:34:25;11.60;59.40
3678;DHT22;1855;50.934;6.958;2023-04-06T14:36:52;11.50;60.00
3678;DHT22;1855;50.934;6.958;2023-04-06T14:39:19;11.70;60.10
3678;DHT22;1855;50.934;6.958;2023-04-06T14:41:45;11.70;60.90
3678;DHT22;1855;50.934;6.958;2023-04-06T14:44:15;11.70;61.20
3678;DHT22;1855;50.934;6.958;2023-04-06T14:46:41;11.60;63.00
3678;DHT22;1855;50.934;6.958;2023-04-06T14:49:08;11.60;64.90
3678;DHT22;1855;50.934;6.958;2023-04-06T14:51:35;11.40;65.70
3678;DHT22;1855;50.934;6.958;2023-04-06T14:54:02;11.40;67.10
3678;DHT22;1855;50.934;6.958;2023-04-06T14:56:29;11.20;69.90
3678;DHT22;1855;50.934;6.958;2023-04-06T14:58:58;11.00;71.70
3678;DHT22;1855;50.934;6.958;2023-04-06T15:01:28;10.80;75.10
3678;DHT22;1855;50.934;6.958;2023-04-06T15:03:55;10.60;77.90
3678;DHT22;1855;50.934;6.958;2023-04-06T15:06:21;10.40;80.50
3678;DHT22;1855;50.934;6.958;2023-04-06T15:08:48;10.20;84.40
3678;DHT22;1855;50.934;6.958;2023-04-06T15:11:15;10.00;87.20
3678;DHT22;1855;50.934;6.958;2023-04-06T15:13:42;9.90;89.70
3678;DHT22;1855;50.934;6.958;2023-04-06T15:16:09;9.90;91.00
3678;DHT22;1855;50.934;6.958;2023-04-06T15:18:37;9.80;90.30
3678;DHT22;1855;50.934;6.958;2023-04-06T15:21:03;9.60;91.40
3678;DHT22;1855;50.934;6.958;2023-04-06T15:23:30;9.50;92.50
3678;DHT22;1855;50.934;6.958;2023-04-06T15:25:58;9.30;94.40
3678;DHT22;1855;50.934;6.958;2023-04-06T15:28:25;9.30;95.30
3678;DHT22;1855;50.934;6.958;2023-04-06T15:30:52;9.10;96.40
3678;DHT22;1855;50.934;6.958;2023-04-06T15:33:20;9.10;97.40
3678;DHT22;1855;50.934;6.958;2023-04-06T15:35:48;9.00;96.90
3678;DHT22;1855;50.934;6.958;2023-04-06T15:38:15;8.90;97.90
3678;DHT22;1855;50.934;6.958;2023-04-06T15:40:43;8.80;99.70
3678;DHT22;1855;50.934;6.958;2023-04-06T15:43:11;8.80;99.90
3678;DHT22;1855;50.934;6.958;2023-04-06T15:45:38;8.70;99.10
3678;DHT22;1855;50.934;6.958;2023-04-06T15:48:04;8.60;99.60
3678;DHT22;1855;50.934;6.958;2023-04-06T15:50:31;8.50;99.90
3678;DHT22;1855;50.934;6.958;2023-04-06T15:52:59;8.40;99.90
3678;DHT22;1855;50.934;6.958;2023-04-06T15:55:26;8.50;99.90
3678;DHT22;1855;50.934;6.958;2023-04-06T15:57:53;8.40;99.90
3678;DHT22;1855;50.934;6.958;2023-04-06T16:00:21;8.40;99.90
3678;DHT22;1855;50.934;6.958;2023-04-06T16:02:48;8.40;99.90
3678;DHT22;1855;50.934;6.958;2023-04-06T16:05:14;8.60;99.90
3678;DHT22;1855;50.934;6.958;2023-04-06T16:07:41;8.60;99.90
3678;DHT22;1855;50.934;6.958;2023-04-06T16:10:10;8.60;99.90
3678;DHT22;1855;50.934;6.958;2023-04-06T16:12:37;8.60;99.90
3678;DHT22;1855;50.934;6.958;2023-04-06T16:15:07;8.50;99.90
3678;DHT22;1855;50.934;6.958;2023-04-06T16:17:34;8.40;99.90